Time;durP1;ratioP1;P1;durP2;ratioP2;P2;SDS_P1;SDS_P2;PMS_P1;PMS_P2;Temp;Humidity;BMP_temperature;BMP_pressure;BME280_temperature;BME280_humidity;BME280_pressure;Samples;Min_cycle;Max_cycle;Signal;HPM_P1;HPM_P2
2021/05/05 00:00:00;;;;;;;;;;;6.90;99.90;;;;;;10256243;29;20025;-93
2021/05/05 00:05:02;;;;;;;;;;;6.10;99.90;;;;;;10259926;28;19984;-93
2021/05/05 00:10:04;;;;;;;;;;;6.10;99.90;;;;;;10295571;28;19926;-92
2021/05/05 00:15:06;;;;;;;;;;;6.20;99.90;;;;;;10296738;28;19969;-92
2021/05/05 00:20:09;;;;;;;;;;;6.20;99.90;;;;;;10300630;28;19973;-93
2021/05/05 00:25:11;;;;;;;;;;;6.30;99.90;;;;;;10289756;28;19948;-93
2021/05/05 00:30:12;;;;;;;;;;;6.30;99.90;;;;;;10291783;28;19927;-94
2021/05/05 00:35:13;;;;;;;;;;;6.30;99.90;;;;;;10309185;28;20425;-93
2021/05/05 00:40:15;;;;;;;;;;;6.30;99.90;;;;;;10293981;28;19977;-93
2021/05/05 00:45:16;;;;;;;;;;;6.30;99.90;;;;;;10304301;28;19927;-93
2021/05/05 00:50:18;;;;;;;;;;;6.40;99.90;;;;;;10285966;28;20373;-93
2021/05/05 00:55:19;;;;;;;;;;;6.40;99.90;;;;;;10258491;29;20408;-93
2021/05/05 01:00:21;;;;;;;;;;;6.40;99.90;;;;;;10244562;29;19926;-92
2021/05/05 01:05:22;;;;;;;;;;;6.40;99.90;;;;;;10276533;28;19937;-93
2021/05/05 01:10:24;;;;;;;;;;;6.40;99.90;;;;;;10262530;29;19926;-92
2021/05/05 01:15:25;;;;;;;;;;;6.30;99.90;;;;;;10272310;28;20394;-93
2021/05/05 01:20:28;;;;;;;;;;;6.30;99.90;;;;;;10299770;28;20293;-92
2021/05/05 01:25:29;;;;;;;;;;;7.20;99.90;;;;;;10297038;28;19933;-93
2021/05/05 01:30:30;;;;;;;;;;;6.00;99.90;;;;;;10298375;28;19969;-92
2021/05/05 01:35:32;;;;;;;;;;;5.90;99.90;;;;;;10298707;28;19926;-93
2021/05/05 01:40:34;;;;;;;;;;;5.90;99.90;;;;;;10286197;28;20013;-93
2021/05/05 01:45:36;;;;;;;;;;;5.90;99.90;;;;;;10284117;28;19949;-93
2021/05/05 01:50:37;;;;;;;;;;;5.90;99.90;;;;;;10284914;28;20024;-93
2021/05/05 01:55:38;;;;;;;;;;;6.50;99.90;;;;;;10263853;28;20020;-93
2021/05/05 02:00:40;;;;;;;;;;;5.90;99.90;;;;;;10281921;28;19926;-93
2021/05/05 02:05:41;;;;;;;;;;;6.60;99.90;;;;;;10299395;28;19930;-92
2021/05/05 02:10:45;;;;;;;;;;;5.70;99.90;;;;;;10244103;29;20377;-92
2021/05/05 02:15:46;;;;;;;;;;;6.00;99.90;;;;;;10243972;29;19926;-91
2021/05/05 02:20:48;;;;;;;;;;;6.00;99.90;;;;;;10255374;28;20415;-93
2021/05/05 02:25:49;;;;;;;;;;;6.00;99.90;;;;;;10264843;28;19930;-92
2021/05/05 02:30:50;;;;;;;;;;;6.70;99.90;;;;;;10241748;29;19932;-93
2021/05/05 02:35:51;;;;;;;;;;;6.00;99.90;;;;;;10290031;22;19927;-89
2021/05/05 02:40:53;;;;;;;;;;;4.90;99.90;;;;;;10296602;28;19987;-89
2021/05/05 02:45:54;;;;;;;;;;;4.80;99.90;;;;;;10261128;28;19926;-89
2021/05/05 02:50:55;;;;;;;;;;;6.30;99.90;;;;;;10239503;29;20422;-88
2021/05/05 02:55:56;;;;;;;;;;;6.00;99.90;;;;;;10273875;28;19932;-89
2021/05/05 03:00:57;;;;;;;;;;;4.80;99.90;;;;;;10279400;28;20345;-89
2021/05/05 03:05:59;;;;;;;;;;;6.20;99.90;;;;;;10260422;28;19926;-90
2021/05/05 03:11:01;;;;;;;;;;;4.80;99.90;;;;;;10239954;29;19932;-90
2021/05/05 03:16:02;;;;;;;;;;;5.60;99.90;;;;;;10290895;28;20393;-90
2021/05/05 03:21:04;;;;;;;;;;;4.70;99.90;;;;;;10295495;28;19926;-90
2021/05/05 03:26:05;;;;;;;;;;;4.60;99.90;;;;;;10242082;29;19932;-90
2021/05/05 03:31:06;;;;;;;;;;;6.40;99.90;;;;;;10239682;28;19944;-90
2021/05/05 03:36:07;;;;;;;;;;;4.60;99.90;;;;;;10238478;29;20392;-91
2021/05/05 03:41:09;;;;;;;;;;;4.80;99.90;;;;;;10264459;28;19933;-90
2021/05/05 03:46:10;;;;;;;;;;;5.50;99.90;;;;;;10295081;28;19926;-90
2021/05/05 03:51:11;;;;;;;;;;;6.80;99.90;;;;;;10281046;28;19933;-90
2021/05/05 03:56:13;;;;;;;;;;;5.10;99.90;;;;;;10275700;28;19930;-90
2021/05/05 04:01:14;;;;;;;;;;;5.30;99.90;;;;;;10263723;28;20305;-89
2021/05/05 04:06:16;;;;;;;;;;;5.50;99.90;;;;;;10238208;29;19926;-90
2021/05/05 04:11:17;;;;;;;;;;;5.00;99.90;;;;;;10266841;28;20699;-89
2021/05/05 04:16:21;;;;;;;;;;;5.50;99.90;;;;;;10295007;28;19957;-90
2021/05/05 04:21:40;;;;;;;;;;;5.20;99.90;;;;;;10293458;28;19914;-90
2021/05/05 04:27:00;;;;;;;;;;;5.60;99.90;;;;;;10293847;28;19914;-91
2021/05/05 04:32:01;;;;;;;;;;;5.30;99.90;;;;;;10281517;28;19930;-89
2021/05/05 04:37:03;;;;;;;;;;;5.30;99.90;;;;;;10294214;28;20016;-90
2021/05/05 04:42:05;;;;;;;;;;;5.40;99.90;;;;;;10293189;28;19926;-90
2021/05/05 04:47:06;;;;;;;;;;;5.30;99.90;;;;;;10293398;28;19930;-90
2021/05/05 04:52:08;;;;;;;;;;;5.50;99.90;;;;;;10292628;28;19926;-90
2021/05/05 04:57:09;;;;;;;;;;;7.20;99.90;;;;;;10275260;28;19932;-90
2021/05/05 05:02:11;;;;;;;;;;;5.40;99.90;;;;;;10277097;28;20086;-91
2021/05/05 05:07:12;;;;;;;;;;;6.20;99.90;;;;;;10274916;28;20362;-90
2021/05/05 05:12:14;;;;;;;;;;;5.50;99.90;;;;;;10296853;28;20408;-90
2021/05/05 05:17:16;;;;;;;;;;;5.30;99.90;;;;;;10283560;28;19926;-89
2021/05/05 05:22:18;;;;;;;;;;;5.20;99.90;;;;;;10282720;28;19977;-90
2021/05/05 05:27:20;;;;;;;;;;;5.30;99.90;;;;;;10264482;28;19932;-90
2021/05/05 05:32:21;;;;;;;;;;;5.30;99.90;;;;;;10258973;29;19926;-90
2021/05/05 05:37:24;;;;;;;;;;;5.30;99.90;;;;;;10259045;28;19930;-90
2021/05/05 05:42:25;;;;;;;;;;;7.10;99.90;;;;;;10275584;28;19926;-90
2021/05/05 05:47:26;;;;;;;;;;;6.90;99.90;;;;;;10310401;28;20022;-90
2021/05/05 05:52:28;;;;;;;;;;;7.30;99.90;;;;;;10283838;28;19934;-90
2021/05/05 05:57:29;;;;;;;;;;;5.50;99.90;;;;;;10298517;28;19933;-88
2021/05/05 06:02:30;;;;;;;;;;;7.00;99.90;;;;;;10297622;28;19933;-88
2021/05/05 06:07:31;;;;;;;;;;;5.60;99.90;;;;;;10259901;28;19926;-88
2021/05/05 06:12:33;;;;;;;;;;;6.80;99.90;;;;;;10257638;28;19930;-88
2021/05/05 06:17:34;;;;;;;;;;;5.70;99.90;;;;;;10299875;28;19932;-91
2021/05/05 06:22:35;;;;;;;;;;;6.10;99.90;;;;;;10298124;28;19932;-90
2021/05/05 06:27:37;;;;;;;;;;;6.30;99.90;;;;;;10217144;29;19927;-89
2021/05/05 06:32:38;;;;;;;;;;;8.00;99.90;;;;;;10237622;28;20282;-89
2021/05/05 06:37:40;;;;;;;;;;;6.10;99.90;;;;;;10280238;28;20370;-90
2021/05/05 06:42:41;;;;;;;;;;;5.90;99.90;;;;;;10277636;28;19934;-89
2021/05/05 06:47:43;;;;;;;;;;;6.20;99.90;;;;;;10257011;29;20300;-89
2021/05/05 06:52:44;;;;;;;;;;;5.90;99.90;;;;;;10245032;28;19926;-89
2021/05/05 06:57:45;;;;;;;;;;;6.00;99.90;;;;;;10295846;28;20012;-89
2021/05/05 07:02:47;;;;;;;;;;;7.00;99.90;;;;;;10294792;28;19949;-89
2021/05/05 07:07:48;;;;;;;;;;;6.10;99.90;;;;;;10279320;28;19930;-88
2021/05/05 07:12:49;;;;;;;;;;;6.40;99.90;;;;;;10267665;28;19941;-88
2021/05/05 07:17:52;;;;;;;;;;;7.00;99.90;;;;;;10255540;29;19934;-90
2021/05/05 07:22:53;;;;;;;;;;;7.00;99.90;;;;;;10255440;28;19931;-89
2021/05/05 07:27:54;;;;;;;;;;;7.60;99.90;;;;;;10255456;29;19954;-89
2021/05/05 07:32:56;;;;;;;;;;;8.50;99.90;;;;;;10246862;28;19933;-89
2021/05/05 07:38:20;;;;;;;;;;;7.60;99.90;;;;;;10294082;28;20385;-88
2021/05/05 07:53:25;;;;;;;;;;;6.30;99.90;;;;;;10279288;28;19926;-88
2021/05/05 07:58:26;;;;;;;;;;;7.20;99.90;;;;;;10293178;28;19914;-89
2021/05/05 08:03:27;;;;;;;;;;;8.90;99.90;;;;;;10268636;28;20362;-88
2021/05/05 08:08:29;;;;;;;;;;;9.30;99.90;;;;;;10254252;29;19927;-89
2021/05/05 08:13:31;;;;;;;;;;;10.50;99.90;;;;;;10264726;28;19933;-88
2021/05/05 08:18:32;;;;;;;;;;;10.40;99.90;;;;;;10293401;28;19942;-90
2021/05/05 08:23:37;;;;;;;;;;;9.40;99.90;;;;;;10292990;28;19977;-88
2021/05/05 08:28:43;;;;;;;;;;;8.50;99.90;;;;;;10270154;28;19938;-88
2021/05/05 08:33:47;;;;;;;;;;;8.20;99.90;;;;;;10267742;28;19933;-89
2021/05/05 08:38:48;;;;;;;;;;;10.80;99.90;;;;;;10248390;23;19933;-94
2021/05/05 08:43:50;;;;;;;;;;;9.80;99.90;;;;;;10261653;28;19933;-94
2021/05/05 08:48:52;;;;;;;;;;;10.70;99.90;;;;;;10309342;28;20021;-94
2021/05/05 08:53:53;;;;;;;;;;;9.40;99.90;;;;;;10307955;28;19934;-92
2021/05/05 08:58:55;;;;;;;;;;;9.50;99.90;;;;;;10305735;28;19994;-95
2021/05/05 09:03:56;;;;;;;;;;;8.80;99.90;;;;;;10286270;28;19954;-94
2021/05/05 09:08:57;;;;;;;;;;;9.40;99.90;;;;;;10302827;28;19947;-93
2021/05/05 09:14:00;;;;;;;;;;;8.30;99.90;;;;;;10302185;28;19951;-92
2021/05/05 09:19:09;;;;;;;;;;;9.00;99.90;;;;;;10285056;28;19926;-94
2021/05/05 09:24:23;;;;;;;;;;;9.30;99.90;;;;;;10269278;28;19977;-94
2021/05/05 09:29:45;;;;;;;;;;;10.00;99.90;;;;;;10248674;29;20370;-95
2021/05/05 09:35:03;;;;;;;;;;;10.10;99.90;;;;;;10221671;29;19926;-95
2021/05/05 09:40:06;;;;;;;;;;;9.70;99.90;;;;;;10258782;28;19930;-94
2021/05/05 09:45:11;;;;;;;;;;;9.70;99.90;;;;;;10300938;28;19926;-93
2021/05/05 09:50:23;;;;;;;;;;;9.80;99.90;;;;;;10297278;28;19935;-91
2021/05/05 09:55:24;;;;;;;;;;;8.40;99.90;;;;;;10229410;29;19931;-92
2021/05/05 10:00:25;;;;;;;;;;;7.70;99.90;;;;;;10206306;29;20025;-92
2021/05/05 10:05:31;;;;;;;;;;;7.50;99.90;;;;;;10203368;29;20396;-93
2021/05/05 10:10:33;;;;;;;;;;;8.50;99.90;;;;;;10226368;29;20366;-92
2021/05/05 10:15:37;;;;;;;;;;;9.90;99.90;;;;;;10258645;29;19926;-91
2021/05/05 10:20:42;;;;;;;;;;;11.20;99.90;;;;;;10248401;28;19927;-92
2021/05/05 10:25:46;;;;;;;;;;;11.00;99.90;;;;;;10292134;28;19934;-90
2021/05/05 10:30:48;;;;;;;;;;;9.70;99.90;;;;;;10297252;28;19977;-91
2021/05/05 10:35:49;;;;;;;;;;;8.60;99.90;;;;;;10297448;28;19932;-91
2021/05/05 10:41:04;;;;;;;;;;;8.90;99.90;;;;;;10296808;28;20036;-91
2021/05/05 10:46:26;;;;;;;;;;;9.70;99.90;;;;;;10297445;28;20021;-91
2021/05/05 10:51:48;;;;;;;;;;;11.80;99.90;;;;;;10296507;28;19933;-93
2021/05/05 10:57:25;;;;;;;;;;;11.40;99.90;;;;;;10294379;28;20464;-91
2021/05/05 11:02:38;;;;;;;;;;;11.50;99.90;;;;;;10271261;28;19933;-91
2021/05/05 11:07:59;;;;;;;;;;;10.90;99.90;;;;;;10254372;28;19926;-89
2021/05/05 11:13:19;;;;;;;;;;;12.20;99.90;;;;;;10248826;28;19932;-88
2021/05/05 11:18:31;;;;;;;;;;;12.40;99.90;;;;;;10255595;29;20013;-88
2021/05/05 11:23:32;;;;;;;;;;;12.00;99.90;;;;;;10254553;29;19926;-88
2021/05/05 11:28:57;;;;;;;;;;;11.80;99.90;;;;;;10254881;29;20297;-88
2021/05/05 11:33:59;;;;;;;;;;;12.40;99.90;;;;;;10255171;29;19938;-90
2021/05/05 11:39:01;;;;;;;;;;;11.50;99.90;;;;;;10253944;29;19926;-89
2021/05/05 11:44:02;;;;;;;;;;;11.10;99.90;;;;;;10214475;29;19927;-88
2021/05/05 11:49:04;;;;;;;;;;;12.00;99.90;;;;;;10234452;29;20021;-88
2021/05/05 11:54:11;;;;;;;;;;;11.60;99.90;;;;;;10232306;29;19942;-91
2021/05/05 11:59:12;;;;;;;;;;;12.60;99.90;;;;;;10254093;29;19926;-89
2021/05/05 12:04:14;;;;;;;;;;;12.80;99.90;;;;;;10248160;29;20290;-89
2021/05/05 12:09:21;;;;;;;;;;;12.70;99.90;;;;;;10254091;28;19934;-89
2021/05/05 12:14:29;;;;;;;;;;;11.70;99.90;;;;;;10271085;28;20009;-89
2021/05/05 12:19:30;;;;;;;;;;;11.30;99.90;;;;;;10290732;28;19926;-88
2021/05/05 12:24:31;;;;;;;;;;;11.70;99.90;;;;;;10245311;29;19946;-89
2021/05/05 12:29:33;;;;;;;;;;;12.90;99.90;;;;;;10244110;29;19926;-89
2021/05/05 12:34:34;;;;;;;;;;;13.00;99.80;;;;;;10261450;28;19937;-89
2021/05/05 12:39:35;;;;;;;;;;;12.10;98.30;;;;;;10261053;29;20009;-88
2021/05/05 12:44:37;;;;;;;;;;;11.60;99.40;;;;;;10260838;29;19926;-87
2021/05/05 12:49:42;;;;;;;;;;;12.00;99.70;;;;;;10260665;29;19977;-87
2021/05/05 12:54:44;;;;;;;;;;;11.00;99.90;;;;;;10238655;29;19930;-89
2021/05/05 12:59:48;;;;;;;;;;;10.50;99.90;;;;;;10271998;28;19926;-90
2021/05/05 13:04:50;;;;;;;;;;;10.60;99.90;;;;;;10267989;28;20377;-88
2021/05/05 13:10:11;;;;;;;;;;;11.10;99.90;;;;;;10269092;28;20270;-87
2021/05/05 13:30:53;;;;;;;;;;;11.10;99.90;;;;;;10256412;28;19933;-88
2021/05/05 13:35:57;;;;;;;;;;;12.20;98.10;;;;;;10243081;29;19926;-89
2021/05/05 13:41:03;;;;;;;;;;;12.30;96.90;;;;;;10234227;29;19927;-88
2021/05/05 13:46:12;;;;;;;;;;;11.50;97.10;;;;;;10218200;29;19959;-88
2021/05/05 13:51:23;;;;;;;;;;;9.80;99.90;;;;;;10226014;28;19931;-89
2021/05/05 13:56:25;;;;;;;;;;;10.20;99.90;;;;;;10282370;28;19930;-88
2021/05/05 14:01:26;;;;;;;;;;;11.10;99.90;;;;;;10265840;28;20018;-89
2021/05/05 14:06:28;;;;;;;;;;;11.20;99.90;;;;;;10266381;28;19926;-89
2021/05/05 14:11:29;;;;;;;;;;;10.10;99.90;;;;;;10245190;29;19933;-90
2021/05/05 14:16:31;;;;;;;;;;;11.20;99.90;;;;;;10242600;29;20378;-91
2021/05/05 14:21:32;;;;;;;;;;;11.60;99.90;;;;;;10256897;28;20370;-90
2021/05/05 14:26:34;;;;;;;;;;;11.10;99.90;;;;;;10241999;29;19953;-89
2021/05/05 14:31:36;;;;;;;;;;;10.90;99.30;;;;;;10243971;29;19926;-92
2021/05/05 14:36:37;;;;;;;;;;;11.00;99.30;;;;;;10261827;28;19926;-89
2021/05/05 14:41:40;;;;;;;;;;;11.30;99.00;;;;;;10229897;28;19937;-90
2021/05/05 14:51:47;;;;;;;;;;;12.00;97.70;;;;;;10287928;28;19930;-90
2021/05/05 14:56:48;;;;;;;;;;;12.00;97.50;;;;;;10271853;28;19953;-89
2021/05/05 15:01:50;;;;;;;;;;;10.90;97.10;;;;;;10239134;28;19926;-89
2021/05/05 15:06:54;;;;;;;;;;;11.50;97.10;;;;;;10261008;28;20266;-90
2021/05/05 15:12:14;;;;;;;;;;;11.80;94.50;;;;;;10289402;28;19932;-90
2021/05/05 15:28:45;;;;;;;;;;;11.30;92.80;;;;;;10256805;28;19933;-88
2021/05/05 15:38:50;;;;;;;;;;;11.90;92.30;;;;;;10254088;29;19926;-90
2021/05/05 15:48:59;;;;;;;;;;;12.30;91.20;;;;;;10254788;29;19933;-88
2021/05/05 15:54:00;;;;;;;;;;;12.00;91.30;;;;;;10254181;28;19949;-91
2021/05/05 15:59:10;;;;;;;;;;;11.60;91.10;;;;;;10238264;29;20041;-92
2021/05/05 16:20:00;;;;;;;;;;;11.20;81.30;;;;;;10233135;29;20438;-91
2021/05/05 17:12:46;;;;;;;;;;;10.10;91.10;;;;;;10208791;29;19927;-90
2021/05/05 18:00:44;;;;;;;;;;;9.60;96.00;;;;;;10227478;29;20366;-89
2021/05/05 18:10:12;;;;;;;;;;;9.60;95.60;;;;;;10218297;29;19927;-90
2021/05/05 18:15:34;;;;;;;;;;;9.40;96.40;;;;;;10217773;29;19927;-89
2021/05/05 18:20:39;;;;;;;;;;;9.30;97.10;;;;;;10204302;29;19926;-89
2021/05/05 18:31:01;;;;;;;;;;;9.00;96.90;;;;;;10193157;29;19943;-88
2021/05/05 18:36:03;;;;;;;;;;;8.70;98.10;;;;;;10232315;29;19927;-89
2021/05/05 22:49:57;;;;;;;;;;;5.80;99.90;;;;;;10377020;28;20021;-89
2021/05/05 23:11:08;;;;;;;;;;;5.60;99.90;;;;;;10377567;28;19925;-89
2021/05/05 23:16:45;;;;;;;;;;;5.50;99.90;;;;;;10377634;28;19932;-89
2021/05/05 23:26:53;;;;;;;;;;;6.00;99.90;;;;;;10375431;28;19932;-89
